Terminal Aerodrome Forecast
Issued by NWS

Home | Current Version | Previous Version | Text Only | Print | Product List | Glossary On
Versions: 1 2 3 4 5 6 7 8 9 10 11 12 13 14 15 16 17 18 19 20 21 22 23 24 25 26
000
FTAK31 PAFC 221137
TAFAIL
TAF
PAIL 221137Z 2212/2312 04012KT P6SM SKC
     FM221600 06015G25KT P6SM OVC060
     FM222200 09020G30KT P6SM OVC100
     FM230900 09025G35KT 6SM -SHSN BR SCT025 OVC050=

USA.gov is the U.S. government's official web portal to all federal, state and local government web resources and services.